Time;durP1;ratioP1;P1;durP2;ratioP2;P2;SDS_P1;SDS_P2;PMS_P1;PMS_P2;Temp;Humidity;BMP_temperature;BMP_pressure;BME280_temperature;BME280_humidity;BME280_pressure;Samples;Min_cycle;Max_cycle;Signal;HPM_P1;HPM_P2
2022/02/26 00:00:31;;;;;;;9.70;2.88;;;14.60;66.70;;;;;;4176858;28;20076;-59
2022/02/26 00:02:54;;;;;;;13.50;3.10;;;14.60;66.50;;;;;;4177201;28;20165;-59
2022/02/26 00:05:17;;;;;;;14.68;3.50;;;14.70;66.40;;;;;;4159986;28;20660;-59
2022/02/26 00:07:39;;;;;;;15.13;2.90;;;14.70;67.10;;;;;;4161144;28;20059;-59
2022/02/26 00:10:02;;;;;;;19.38;3.15;;;14.70;67.00;;;;;;4176810;28;20139;-59
2022/02/26 00:12:24;;;;;;;12.38;3.45;;;14.70;66.10;;;;;;4176539;28;20049;-59
2022/02/26 00:14:46;;;;;;;15.43;3.60;;;14.70;66.90;;;;;;4160694;28;20533;-59
2022/02/26 00:17:08;;;;;;;19.88;3.22;;;14.70;66.00;;;;;;4160232;28;20144;-59
2022/02/26 00:19:33;;;;;;;15.10;3.38;;;14.70;65.90;;;;;;4160471;28;20525;-58
2022/02/26 00:21:55;;;;;;;11.98;3.35;;;14.70;66.20;;;;;;4177335;28;20082;-58
2022/02/26 00:24:17;;;;;;;18.05;4.07;;;14.70;66.20;;;;;;4176734;28;20408;-58
2022/02/26 00:26:39;;;;;;;14.80;3.00;;;14.70;67.00;;;;;;4177430;28;20049;-58
2022/02/26 00:29:01;;;;;;;16.27;3.70;;;14.70;66.20;;;;;;4176305;28;20052;-58
2022/02/26 00:31:24;;;;;;;18.92;2.85;;;14.70;66.10;;;;;;4176591;28;20095;-59
2022/02/26 00:33:47;;;;;;;12.52;2.45;;;14.70;66.10;;;;;;4177397;28;20053;-59
2022/02/26 00:36:11;;;;;;;12.95;2.97;;;14.70;66.20;;;;;;4177386;28;20536;-59
2022/02/26 00:38:34;;;;;;;13.27;3.30;;;14.70;66.10;;;;;;4175699;28;20409;-59
2022/02/26 00:40:56;;;;;;;16.08;3.50;;;14.70;66.20;;;;;;4176205;28;20053;-59
2022/02/26 00:43:18;;;;;;;11.75;2.88;;;14.60;66.10;;;;;;4160570;28;20152;-59
2022/02/26 00:45:41;;;;;;;25.83;3.30;;;14.70;66.10;;;;;;4159771;28;20457;-59
2022/02/26 00:48:03;;;;;;;12.70;3.10;;;14.60;66.60;;;;;;4168172;28;20097;-59
2022/02/26 00:50:25;;;;;;;18.00;3.17;;;14.60;66.80;;;;;;4175116;28;20543;-59
2022/02/26 00:52:49;;;;;;;17.17;3.20;;;14.70;66.70;;;;;;4160260;28;20525;-59
2022/02/26 00:55:11;;;;;;;22.52;4.10;;;14.80;66.40;;;;;;4158872;28;20132;-59
2022/02/26 00:57:34;;;;;;;12.65;3.28;;;14.90;66.20;;;;;;4163999;28;20129;-60
2022/02/26 00:59:56;;;;;;;17.88;3.58;;;14.90;65.90;;;;;;4176643;28;20135;-58
2022/02/26 01:02:19;;;;;;;15.52;3.30;;;15.00;65.80;;;;;;4176662;28;20777;-58
2022/02/26 01:04:42;;;;;;;15.00;3.05;;;15.00;65.60;;;;;;4176801;28;20493;-58
2022/02/26 01:07:05;;;;;;;15.07;3.38;;;15.00;65.50;;;;;;4176447;28;20481;-59
2022/02/26 01:09:28;;;;;;;12.07;3.33;;;15.00;65.50;;;;;;4176525;28;20059;-59
2022/02/26 01:11:50;;;;;;;12.60;2.85;;;15.00;65.50;;;;;;4176614;28;20100;-59
2022/02/26 01:14:13;;;;;;;14.20;3.22;;;15.00;65.60;;;;;;4176472;28;20052;-58
2022/02/26 01:16:36;;;;;;;12.35;2.85;;;15.00;65.70;;;;;;4174889;28;20045;-59
2022/02/26 01:18:58;;;;;;;15.68;3.05;;;14.90;65.60;;;;;;4161364;28;20531;-59
2022/02/26 01:21:21;;;;;;;17.25;2.85;;;14.90;65.60;;;;;;4176405;28;20047;-58
2022/02/26 01:23:43;;;;;;;15.32;3.10;;;15.00;65.60;;;;;;4176526;28;20485;-59
2022/02/26 01:26:06;;;;;;;16.30;3.05;;;15.00;65.60;;;;;;4176110;28;20049;-58
2022/02/26 01:28:28;;;;;;;9.80;3.05;;;15.00;65.70;;;;;;4175593;28;20055;-59
2022/02/26 01:30:56;;;;;;;12.82;2.92;;;15.00;65.50;;;;;;4159477;28;20517;-59
2022/02/26 01:33:18;;;;;;;12.68;3.55;;;15.10;65.50;;;;;;4159163;28;20497;-59
2022/02/26 01:35:41;;;;;;;13.80;2.83;;;15.20;65.10;;;;;;4159848;28;20053;-59
2022/02/26 01:38:03;;;;;;;15.00;3.08;;;15.30;64.70;;;;;;4159434;28;20100;-58
2022/02/26 01:40:27;;;;;;;14.10;2.60;;;15.30;64.20;;;;;;4159782;28;20041;-58
2022/02/26 01:42:50;;;;;;;9.15;2.42;;;15.40;64.30;;;;;;4159697;28;20056;-59
2022/02/26 01:45:14;;;;;;;17.48;2.90;;;15.40;64.10;;;;;;4143423;28;20108;-58
2022/02/26 01:47:36;;;;;;;8.75;2.55;;;15.30;64.90;;;;;;4148405;28;20041;-59
2022/02/26 01:49:58;;;;;;;11.45;3.10;;;15.40;64.30;;;;;;4159611;28;20081;-59
2022/02/26 01:52:26;;;;;;;10.68;3.10;;;15.40;64.30;;;;;;4159489;28;20053;-58
2022/02/26 01:54:48;;;;;;;12.55;2.67;;;15.40;64.20;;;;;;4143121;28;20054;-59
2022/02/26 01:57:11;;;;;;;11.15;2.90;;;15.40;64.30;;;;;;4144626;28;20046;-59
2022/02/26 01:59:34;;;;;;;17.58;3.88;;;15.30;64.30;;;;;;4174571;28;20137;-59
2022/02/26 02:01:56;;;;;;;14.45;3.05;;;15.30;65.10;;;;;;4175932;28;20084;-59
2022/02/26 02:04:19;;;;;;;10.88;2.75;;;15.30;64.40;;;;;;4175058;28;20041;-58
2022/02/26 02:06:42;;;;;;;11.20;2.30;;;15.30;64.50;;;;;;4175775;28;20063;-59
2022/02/26 02:09:07;;;;;;;14.43;2.60;;;15.20;64.70;;;;;;4158658;28;20132;-59
2022/02/26 02:11:31;;;;;;;12.68;2.92;;;15.20;65.60;;;;;;4159073;28;20504;-58
2022/02/26 02:13:53;;;;;;;11.48;2.55;;;15.20;64.90;;;;;;4170298;28;20385;-59
2022/02/26 02:16:18;;;;;;;13.48;2.50;;;15.20;64.90;;;;;;4175723;28;20049;-59
2022/02/26 02:18:43;;;;;;;11.65;2.40;;;15.20;65.00;;;;;;4175012;28;20052;-59
2022/02/26 02:21:08;;;;;;;9.98;2.45;;;15.20;64.90;;;;;;4174665;28;20063;-58
2022/02/26 02:23:31;;;;;;;15.65;3.80;;;15.40;64.80;;;;;;4175473;28;20049;-58
2022/02/26 02:25:55;;;;;;;14.40;2.85;;;15.40;64.20;;;;;;4175379;28;20106;-58
2022/02/26 02:28:17;;;;;;;15.45;3.35;;;15.50;64.20;;;;;;4175134;28;20053;-58
2022/02/26 02:30:40;;;;;;;16.70;3.33;;;15.50;64.00;;;;;;4175688;28;20045;-58
2022/02/26 02:33:02;;;;;;;9.43;2.13;;;15.50;63.90;;;;;;4157130;28;20478;-58
2022/02/26 02:35:27;;;;;;;13.15;2.42;;;15.50;63.90;;;;;;4158793;28;20057;-58
2022/02/26 02:37:49;;;;;;;14.70;2.83;;;15.50;63.90;;;;;;4158518;28;20069;-58
2022/02/26 02:40:14;;;;;;;15.57;2.75;;;15.50;63.70;;;;;;4158838;28;20481;-60
2022/02/26 02:42:36;;;;;;;15.07;2.80;;;15.50;63.90;;;;;;4159010;28;20477;-59
2022/02/26 02:44:58;;;;;;;11.68;3.10;;;15.50;64.00;;;;;;4142472;28;20100;-58
2022/02/26 02:47:20;;;;;;;11.55;3.15;;;15.50;64.00;;;;;;4149254;28;21386;-60
2022/02/26 02:49:43;;;;;;;11.43;2.83;;;15.40;64.10;;;;;;4159038;28;20146;-59
2022/02/26 02:52:06;;;;;;;13.55;3.10;;;15.40;64.10;;;;;;4158567;28;20833;-59
2022/02/26 02:54:28;;;;;;;9.80;2.40;;;15.40;64.10;;;;;;4159061;28;20041;-59
2022/02/26 02:56:52;;;;;;;16.60;3.15;;;15.50;64.20;;;;;;4158985;28;20136;-59
2022/02/26 02:59:14;;;;;;;14.30;2.95;;;15.40;64.00;;;;;;4159261;28;20049;-59
2022/02/26 03:01:37;;;;;;;13.73;2.70;;;15.50;64.30;;;;;;4158887;28;20065;-58
2022/02/26 03:03:59;;;;;;;10.85;2.22;;;15.50;64.20;;;;;;4159682;28;20049;-59
2022/02/26 03:06:25;;;;;;;9.80;2.65;;;15.50;64.20;;;;;;4162136;28;20041;-59
2022/02/26 03:08:47;;;;;;;14.48;2.95;;;15.50;64.00;;;;;;4145599;28;20061;-59
2022/02/26 03:11:09;;;;;;;14.18;3.35;;;15.50;63.80;;;;;;4145702;28;20053;-58
2022/02/26 03:13:34;;;;;;;13.30;2.85;;;15.60;63.90;;;;;;4154458;28;20413;-59
2022/02/26 03:15:57;;;;;;;11.27;2.50;;;15.60;63.70;;;;;;4161798;28;20474;-59
2022/02/26 03:18:21;;;;;;;12.57;3.42;;;15.60;64.00;;;;;;4145694;28;20049;-59
2022/02/26 03:20:44;;;;;;;15.23;3.17;;;15.60;63.90;;;;;;4143381;28;20042;-59
2022/02/26 03:23:06;;;;;;;16.58;3.10;;;15.60;63.90;;;;;;4159898;28;20079;-59
2022/02/26 03:25:28;;;;;;;14.40;2.60;;;15.60;63.70;;;;;;4161600;28;20410;-59
2022/02/26 03:27:52;;;;;;;17.10;2.70;;;15.70;63.70;;;;;;4161430;28;20045;-58
2022/02/26 03:30:15;;;;;;;13.52;3.15;;;15.70;63.40;;;;;;4161591;28;20536;-59
2022/02/26 03:32:38;;;;;;;18.50;3.20;;;15.70;63.40;;;;;;4161618;28;20048;-59
2022/02/26 03:35:00;;;;;;;11.02;2.65;;;15.70;63.40;;;;;;4161595;28;20092;-58
2022/02/26 03:37:24;;;;;;;13.82;2.60;;;15.70;64.30;;;;;;4161389;28;20548;-59
2022/02/26 03:39:46;;;;;;;15.73;3.22;;;15.70;63.20;;;;;;4161732;28;20076;-58
2022/02/26 03:42:09;;;;;;;8.05;1.98;;;15.70;63.40;;;;;;4161596;28;20049;-59
2022/02/26 03:44:32;;;;;;;9.30;2.05;;;15.70;63.40;;;;;;4161366;28;20051;-59
2022/02/26 03:46:57;;;;;;;12.50;2.78;;;15.70;63.40;;;;;;4160796;28;20077;-59
2022/02/26 03:49:19;;;;;;;9.73;2.70;;;15.70;63.20;;;;;;4161361;28;20469;-59
2022/02/26 03:51:41;;;;;;;8.13;2.17;;;15.70;63.10;;;;;;4161044;28;20132;-58
2022/02/26 03:54:03;;;;;;;12.02;2.78;;;15.70;63.00;;;;;;4161373;28;20127;-59
2022/02/26 03:56:27;;;;;;;11.48;2.13;;;15.70;63.90;;;;;;4161323;28;20474;-58
2022/02/26 03:58:51;;;;;;;13.35;2.75;;;15.70;63.00;;;;;;4161361;28;20099;-58
2022/02/26 04:01:13;;;;;;;12.15;2.83;;;15.70;64.10;;;;;;4161294;28;20053;-58
2022/02/26 04:03:39;;;;;;;11.55;3.33;;;15.70;63.10;;;;;;4144198;28;20516;-59
2022/02/26 04:06:01;;;;;;;16.00;3.47;;;15.70;63.10;;;;;;4158602;28;20049;-58
2022/02/26 04:08:23;;;;;;;11.50;3.15;;;15.70;63.90;;;;;;4159443;28;20061;-59
2022/02/26 04:10:45;;;;;;;14.73;3.40;;;15.70;63.00;;;;;;4161026;28;20123;-59
2022/02/26 04:13:07;;;;;;;10.30;3.00;;;15.70;63.10;;;;;;4144553;28;20053;-59
2022/02/26 04:15:30;;;;;;;12.27;3.25;;;15.70;63.10;;;;;;4153333;28;20096;-58
2022/02/26 04:17:53;;;;;;;9.18;2.97;;;15.70;63.00;;;;;;4160518;28;20055;-60
2022/02/26 04:20:16;;;;;;;17.08;2.88;;;15.70;63.00;;;;;;4160809;28;20139;-59
2022/02/26 04:22:40;;;;;;;10.38;3.08;;;15.60;63.00;;;;;;4160380;28;20513;-59
2022/02/26 04:25:02;;;;;;;14.70;3.65;;;15.60;63.10;;;;;;4160749;28;20500;-59
2022/02/26 04:27:24;;;;;;;13.02;3.00;;;15.60;64.20;;;;;;4160847;28;20052;-59
2022/02/26 04:29:46;;;;;;;12.18;2.50;;;15.70;63.30;;;;;;4160785;28;20045;-58
2022/02/26 04:32:28;;;;;;;9.85;2.42;;;15.70;63.10;;;;;;4160586;28;20133;-58
2022/02/26 04:34:51;;;;;;;14.35;3.10;;;15.70;62.90;;;;;;4160432;28;20454;-58
2022/02/26 04:37:17;;;;;;;10.75;3.08;;;15.70;62.80;;;;;;4160594;28;20396;-58
2022/02/26 04:39:39;;;;;;;10.50;2.65;;;15.70;62.70;;;;;;4160191;28;20051;-59
2022/02/26 04:42:01;;;;;;;16.98;4.38;;;15.70;63.00;;;;;;4160247;28;20569;-59
2022/02/26 04:44:24;;;;;;;17.35;3.78;;;15.70;62.90;;;;;;4160332;28;20071;-58
2022/02/26 04:46:46;;;;;;;13.20;3.10;;;15.60;62.90;;;;;;4144236;28;20053;-58
2022/02/26 04:49:08;;;;;;;13.25;3.83;;;15.70;63.10;;;;;;4144101;28;20050;-58
2022/02/26 04:51:30;;;;;;;16.48;3.30;;;15.70;62.70;;;;;;4149645;28;20467;-58
2022/02/26 04:53:53;;;;;;;11.05;3.13;;;15.70;62.50;;;;;;4159925;28;20084;-58
2022/02/26 04:56:15;;;;;;;10.18;3.67;;;15.80;62.50;;;;;;4159982;28;20053;-58
2022/02/26 04:58:38;;;;;;;12.25;3.33;;;15.80;62.40;;;;;;4160666;28;20141;-58
2022/02/26 05:01:00;;;;;;;11.32;3.35;;;15.80;62.40;;;;;;4160124;28;20046;-59
2022/02/26 05:03:22;;;;;;;14.57;3.08;;;15.80;62.40;;;;;;4160257;28;20108;-59
2022/02/26 05:05:45;;;;;;;9.45;2.75;;;15.70;62.40;;;;;;4160019;28;20048;-59
2022/02/26 05:08:08;;;;;;;13.13;2.70;;;15.70;62.50;;;;;;4160324;28;20053;-59
2022/02/26 05:10:31;;;;;;;11.05;2.80;;;15.70;62.70;;;;;;4158645;28;20053;-59
2022/02/26 05:12:56;;;;;;;14.48;3.83;;;15.60;63.00;;;;;;4143842;28;20061;-58
2022/02/26 05:15:19;;;;;;;13.50;3.53;;;15.70;63.00;;;;;;4152581;28;20075;-59
2022/02/26 05:17:42;;;;;;;11.05;3.00;;;15.60;62.90;;;;;;4160349;28;20486;-58
2022/02/26 05:20:05;;;;;;;11.18;3.13;;;15.60;63.80;;;;;;4160059;28;20057;-59
2022/02/26 05:22:28;;;;;;;9.05;3.25;;;15.60;62.70;;;;;;4159874;28;20486;-59
2022/02/26 05:24:50;;;;;;;12.35;2.53;;;15.60;62.80;;;;;;4159679;28;20478;-58
2022/02/26 05:27:13;;;;;;;10.50;2.63;;;15.50;63.00;;;;;;4159165;28;20053;-59
2022/02/26 05:29:35;;;;;;;11.38;3.13;;;15.50;63.20;;;;;;4158372;28;20046;-58
2022/02/26 05:31:58;;;;;;;11.43;2.80;;;15.50;63.30;;;;;;4159728;28;20103;-59
2022/02/26 05:34:20;;;;;;;12.35;2.90;;;15.50;63.20;;;;;;4159277;28;20049;-60
2022/02/26 05:36:42;;;;;;;12.88;3.22;;;15.50;63.20;;;;;;4159922;28;20056;-58
2022/02/26 05:39:04;;;;;;;13.27;3.20;;;15.50;63.00;;;;;;4159989;28;20041;-59
2022/02/26 05:41:26;;;;;;;9.88;2.90;;;15.50;62.90;;;;;;4158427;28;20053;-59
2022/02/26 05:43:50;;;;;;;10.57;3.00;;;15.60;64.10;;;;;;4159665;28;20046;-59
2022/02/26 05:46:13;;;;;;;12.25;2.42;;;15.60;62.90;;;;;;4143379;28;20050;-59
2022/02/26 05:48:35;;;;;;;10.32;2.78;;;15.70;62.50;;;;;;4159868;28;20041;-58
2022/02/26 05:50:57;;;;;;;10.70;3.05;;;15.80;62.30;;;;;;4159858;28;20111;-59
2022/02/26 05:53:20;;;;;;;14.02;2.92;;;15.80;61.80;;;;;;4167642;28;20477;-59
2022/02/26 05:55:42;;;;;;;8.85;2.40;;;15.90;61.40;;;;;;4175342;28;20044;-59
2022/02/26 05:58:04;;;;;;;12.43;3.03;;;15.90;61.60;;;;;;4175773;28;20071;-59
2022/02/26 06:00:28;;;;;;;12.38;2.60;;;15.90;62.40;;;;;;4175957;28;20103;-59
2022/02/26 06:02:50;;;;;;;10.15;2.95;;;15.80;61.50;;;;;;4175894;28;20053;-59
2022/02/26 06:05:13;;;;;;;12.18;3.03;;;15.80;61.70;;;;;;4175274;28;20045;-59
2022/02/26 06:07:35;;;;;;;8.93;2.47;;;15.80;61.80;;;;;;4175638;28;20041;-59
2022/02/26 06:09:57;;;;;;;10.05;2.47;;;15.80;61.90;;;;;;4175877;28;20099;-59
2022/02/26 06:12:20;;;;;;;16.75;2.78;;;15.80;61.90;;;;;;4175239;28;20645;-59
2022/02/26 06:14:42;;;;;;;19.10;3.28;;;15.90;62.00;;;;;;4167164;28;20075;-59
2022/02/26 06:17:05;;;;;;;7.53;2.25;;;15.80;61.30;;;;;;4175919;28;20091;-59
2022/02/26 06:19:28;;;;;;;10.18;2.78;;;15.80;61.60;;;;;;4175850;28;20056;-59
2022/02/26 06:21:50;;;;;;;14.50;3.05;;;15.80;62.30;;;;;;4175762;28;20053;-58
2022/02/26 06:24:12;;;;;;;8.52;3.13;;;15.80;61.50;;;;;;4165167;28;20045;-58
2022/02/26 06:26:34;;;;;;;9.15;2.90;;;15.80;61.50;;;;;;4175428;28;20115;-58
2022/02/26 06:29:00;;;;;;;13.63;3.17;;;15.70;61.70;;;;;;4175668;28;20048;-59
2022/02/26 06:31:21;;;;;;;9.60;3.55;;;15.70;61.70;;;;;;4175860;28;20052;-59
2022/02/26 06:33:45;;;;;;;12.90;2.95;;;15.80;61.80;;;;;;4175438;28;20132;-59
2022/02/26 06:36:08;;;;;;;10.63;2.97;;;15.80;61.80;;;;;;4159242;28;20056;-59
2022/02/26 06:38:30;;;;;;;11.45;3.20;;;15.90;61.40;;;;;;4159347;28;20145;-59
2022/02/26 06:40:52;;;;;;;11.35;2.55;;;16.00;62.00;;;;;;4162509;28;20061;-59
2022/02/26 06:43:14;;;;;;;9.48;2.67;;;16.00;60.80;;;;;;4162503;28;20108;-59
2022/02/26 06:45:36;;;;;;;12.18;3.30;;;16.00;60.80;;;;;;4162216;28;20096;-59
2022/02/26 06:47:59;;;;;;;12.32;2.55;;;16.00;60.90;;;;;;4146183;28;20127;-60
2022/02/26 06:50:22;;;;;;;12.05;3.85;;;16.00;61.10;;;;;;4144968;28;20097;-60
2022/02/26 06:52:44;;;;;;;10.95;3.00;;;16.00;61.40;;;;;;4145748;28;20046;-59
2022/02/26 06:55:09;;;;;;;9.13;2.72;;;16.00;61.30;;;;;;4161189;28;20545;-59
2022/02/26 06:57:36;;;;;;;9.82;3.10;;;16.00;61.10;;;;;;4162075;28;20413;-60
2022/02/26 06:59:58;;;;;;;9.82;2.60;;;15.90;61.00;;;;;;4144570;28;20053;-59
2022/02/26 07:02:21;;;;;;;19.73;3.03;;;15.90;61.50;;;;;;4145873;28;20096;-59
2022/02/26 07:04:43;;;;;;;11.68;2.88;;;15.90;61.90;;;;;;4157359;28;20045;-59
2022/02/26 07:07:06;;;;;;;14.70;2.53;;;15.90;61.80;;;;;;4161891;28;20140;-59
2022/02/26 07:09:29;;;;;;;10.68;2.90;;;15.90;61.50;;;;;;4161782;28;20045;-59
2022/02/26 07:11:52;;;;;;;13.30;2.92;;;15.90;61.30;;;;;;4161558;28;20049;-59
2022/02/26 07:14:15;;;;;;;13.18;3.05;;;15.90;61.10;;;;;;4161141;28;20049;-59
2022/02/26 07:16:37;;;;;;;9.18;2.63;;;15.90;61.30;;;;;;4161089;28;20417;-59
2022/02/26 07:19:00;;;;;;;10.73;2.67;;;15.80;61.60;;;;;;4161643;28;20073;-59
2022/02/26 07:21:22;;;;;;;14.95;3.00;;;15.90;61.80;;;;;;4160533;28;20050;-59
2022/02/26 07:23:45;;;;;;;10.27;3.10;;;15.90;61.70;;;;;;4161512;28;20049;-59
2022/02/26 07:26:07;;;;;;;15.05;3.42;;;15.90;61.70;;;;;;4160944;28;20049;-58
2022/02/26 07:28:29;;;;;;;11.25;3.38;;;16.00;61.30;;;;;;4161703;28;20051;-58
2022/02/26 07:30:52;;;;;;;12.77;4.80;;;16.00;61.10;;;;;;4162048;28;20474;-59
2022/02/26 07:33:15;;;;;;;15.77;4.82;;;16.00;61.20;;;;;;4161367;28;20076;-59
2022/02/26 07:35:37;;;;;;;13.65;4.95;;;16.00;61.10;;;;;;4161471;28;20069;-58
2022/02/26 07:37:59;;;;;;;12.50;3.85;;;16.00;61.20;;;;;;4161393;28;20111;-58
2022/02/26 07:40:23;;;;;;;13.52;5.00;;;15.90;61.10;;;;;;4161571;28;20061;-59
2022/02/26 07:42:45;;;;;;;16.50;3.80;;;15.90;61.30;;;;;;4160857;28;20088;-59
2022/02/26 07:45:08;;;;;;;14.23;3.15;;;15.90;61.50;;;;;;4161403;28;20527;-59
2022/02/26 07:47:30;;;;;;;15.85;3.35;;;15.90;61.60;;;;;;4161092;28;20050;-59
2022/02/26 07:49:52;;;;;;;13.77;3.05;;;15.90;61.60;;;;;;4160774;28;20062;-59
2022/02/26 07:52:20;;;;;;;8.48;2.40;;;15.90;61.30;;;;;;4160878;28;20460;-60
2022/02/26 07:54:43;;;;;;;11.02;2.60;;;15.90;61.30;;;;;;4159164;28;20049;-59
2022/02/26 07:57:06;;;;;;;13.35;2.88;;;15.90;61.40;;;;;;4158817;28;20409;-59
2022/02/26 07:59:28;;;;;;;18.45;3.13;;;15.90;61.30;;;;;;4160609;28;20140;-59
2022/02/26 08:01:53;;;;;;;12.70;2.78;;;15.90;61.30;;;;;;4179256;28;20126;-59
2022/02/26 08:04:16;;;;;;;9.25;2.78;;;15.90;61.80;;;;;;4160879;28;20058;-59
2022/02/26 08:06:38;;;;;;;13.95;2.60;;;15.90;61.50;;;;;;4160726;28;20069;-59
2022/02/26 08:09:00;;;;;;;13.25;3.72;;;15.90;61.60;;;;;;4161359;28;20053;-59
2022/02/26 08:11:28;;;;;;;13.27;3.42;;;15.90;61.90;;;;;;4160324;28;20416;-59
2022/02/26 08:13:52;;;;;;;12.85;3.72;;;15.90;61.80;;;;;;4160901;28;20057;-59
2022/02/26 08:16:14;;;;;;;14.85;3.53;;;15.90;61.30;;;;;;4160907;28;20053;-59
2022/02/26 08:18:36;;;;;;;19.42;4.72;;;15.90;61.40;;;;;;4161012;28;20548;-60
2022/02/26 08:20:59;;;;;;;18.35;4.53;;;16.00;61.40;;;;;;4160610;28;20108;-60
2022/02/26 08:23:21;;;;;;;13.02;3.55;;;15.90;61.50;;;;;;4159352;28;20136;-59
2022/02/26 08:25:43;;;;;;;13.82;3.85;;;15.90;61.60;;;;;;4161082;28;20417;-59
2022/02/26 08:28:06;;;;;;;13.18;3.38;;;15.90;61.90;;;;;;4160702;28;20056;-59
2022/02/26 08:30:29;;;;;;;14.45;3.58;;;15.90;61.80;;;;;;4160750;28;20134;-59
2022/02/26 08:32:53;;;;;;;11.05;3.30;;;15.90;62.30;;;;;;4160869;28;20390;-59
2022/02/26 08:35:16;;;;;;;10.52;3.22;;;15.90;62.40;;;;;;4160599;28;20057;-59
2022/02/26 08:37:39;;;;;;;11.57;2.50;;;16.00;62.20;;;;;;4160929;28;20045;-59
2022/02/26 08:40:02;;;;;;;10.15;2.88;;;16.10;62.00;;;;;;4161949;28;20108;-58
2022/02/26 08:42:25;;;;;;;10.60;2.80;;;16.10;61.70;;;;;;4158703;28;20045;-60
2022/02/26 08:44:47;;;;;;;16.30;2.88;;;16.10;61.60;;;;;;4160007;28;20132;-59
2022/02/26 08:47:11;;;;;;;12.05;2.97;;;16.20;61.60;;;;;;4160377;28;20052;-58
2022/02/26 08:49:33;;;;;;;11.10;3.67;;;16.20;61.50;;;;;;4153705;28;20442;-59
2022/02/26 08:51:56;;;;;;;10.93;2.83;;;16.20;61.40;;;;;;4160129;28;20069;-59
2022/02/26 08:54:22;;;;;;;10.00;3.03;;;16.20;61.20;;;;;;4159953;28;20512;-60
2022/02/26 08:56:44;;;;;;;12.55;3.17;;;16.20;61.20;;;;;;4160366;28;20128;-59
2022/02/26 08:59:07;;;;;;;12.98;2.65;;;16.20;61.40;;;;;;4159916;28;20058;-60
2022/02/26 09:01:29;;;;;;;9.70;2.95;;;16.20;61.20;;;;;;4159470;28;20055;-59
2022/02/26 09:03:53;;;;;;;13.10;3.30;;;16.30;62.20;;;;;;4159829;28;20688;-60
2022/02/26 09:06:15;;;;;;;13.55;3.63;;;16.30;61.20;;;;;;4159904;28;20060;-59
2022/02/26 09:08:38;;;;;;;18.88;2.88;;;16.40;61.30;;;;;;4159954;28;20057;-59
2022/02/26 09:11:00;;;;;;;14.32;3.90;;;16.40;61.30;;;;;;4160201;28;20056;-59
2022/02/26 09:13:22;;;;;;;15.63;2.90;;;16.40;61.30;;;;;;4160157;28;20053;-59
2022/02/26 09:15:45;;;;;;;12.00;3.40;;;16.30;61.30;;;;;;4158675;28;20111;-59
2022/02/26 09:18:07;;;;;;;15.50;3.45;;;16.30;61.50;;;;;;4158633;28;20052;-59
2022/02/26 09:20:31;;;;;;;20.02;3.35;;;16.30;62.60;;;;;;4159756;28;20453;-60
2022/02/26 09:22:53;;;;;;;18.17;3.30;;;16.30;61.70;;;;;;4159602;28;20159;-59
2022/02/26 09:25:17;;;;;;;19.35;3.17;;;16.30;61.70;;;;;;4157995;28;20054;-59
2022/02/26 09:27:40;;;;;;;14.82;3.17;;;16.30;61.70;;;;;;4159048;28;20049;-59
2022/02/26 09:30:04;;;;;;;9.95;2.88;;;16.30;61.70;;;;;;4159585;28;20049;-59
2022/02/26 09:32:27;;;;;;;13.35;3.00;;;16.30;61.90;;;;;;4159459;28;20059;-59
2022/02/26 09:34:49;;;;;;;15.48;2.80;;;16.30;62.00;;;;;;4159736;28;20056;-59
2022/02/26 09:37:13;;;;;;;11.18;2.92;;;16.30;61.90;;;;;;4159812;28;20045;-59
2022/02/26 09:39:35;;;;;;;18.63;3.00;;;16.20;61.90;;;;;;4159166;28;20405;-59
2022/02/26 09:41:58;;;;;;;16.48;2.63;;;16.20;62.10;;;;;;4159840;28;20099;-59
2022/02/26 09:44:21;;;;;;;9.13;3.05;;;16.20;62.20;;;;;;4159612;28;20140;-60
2022/02/26 09:46:43;;;;;;;17.95;3.67;;;16.20;62.30;;;;;;4159980;28;20041;-59
2022/02/26 09:49:06;;;;;;;14.23;3.70;;;16.20;62.30;;;;;;4158684;28;20520;-60
2022/02/26 09:51:29;;;;;;;13.90;2.83;;;16.20;62.60;;;;;;4159502;28;20053;-60
2022/02/26 09:53:55;;;;;;;11.05;2.17;;;16.20;62.50;;;;;;4159820;28;20747;-60
2022/02/26 09:56:17;;;;;;;18.05;2.85;;;16.30;62.40;;;;;;4159343;28;20470;-59
2022/02/26 09:58:40;;;;;;;15.85;3.28;;;16.30;62.30;;;;;;4175001;28;20053;-61
2022/02/26 10:01:03;;;;;;;10.07;2.33;;;16.30;62.20;;;;;;4175765;28;20044;-59
2022/02/26 10:03:27;;;;;;;15.68;2.97;;;16.30;62.10;;;;;;4175639;28;20049;-59
2022/02/26 10:06:04;;;;;;;12.80;2.75;;;16.30;62.20;;;;;;4160821;28;20052;-59
2022/02/26 10:08:26;;;;;;;18.08;3.25;;;16.30;62.00;;;;;;4159109;28;20071;-58
2022/02/26 10:10:54;;;;;;;20.15;3.25;;;16.40;62.20;;;;;;4143092;28;20049;-59
2022/02/26 10:13:25;;;;;;;14.45;3.00;;;16.50;62.00;;;;;;4148561;28;20052;-59
2022/02/26 10:15:47;;;;;;;15.50;2.63;;;16.70;61.50;;;;;;4150250;28;20107;-60
2022/02/26 10:18:11;;;;;;;12.10;2.97;;;17.10;60.50;;;;;;4159348;28;20474;-59
2022/02/26 10:20:34;;;;;;;13.13;3.05;;;17.40;59.30;;;;;;4159054;28;20084;-58
2022/02/26 10:22:59;;;;;;;5.88;1.83;;;17.80;58.40;;;;;;4158933;28;20141;-59
2022/02/26 10:25:25;;;;;;;13.32;2.67;;;18.20;57.40;;;;;;4158677;28;20046;-59
2022/02/26 10:27:52;;;;;;;11.07;2.22;;;18.40;56.90;;;;;;4150975;28;20049;-59
2022/02/26 10:30:21;;;;;;;16.90;2.40;;;18.50;56.40;;;;;;4159183;28;20048;-59
2022/02/26 10:32:43;;;;;;;10.60;1.92;;;18.50;56.30;;;;;;4158041;28;20054;-58
2022/02/26 10:36:15;;;;;;;9.68;2.50;;;18.50;55.80;;;;;;4192874;27;20345;-58
2022/02/26 10:38:38;;;;;;;14.02;2.55;;;18.40;56.60;;;;;;4203939;28;20408;-58
2022/02/26 10:41:04;;;;;;;14.05;2.63;;;18.40;57.40;;;;;;4205211;28;20129;-59
2022/02/26 10:43:55;;;;;;;13.73;2.60;;;18.30;56.80;;;;;;4195987;28;20049;-59
2022/02/26 10:46:28;;;;;;;13.27;2.33;;;18.30;56.60;;;;;;4189784;28;20049;-59
2022/02/26 10:48:53;;;;;;;13.15;2.22;;;18.40;56.40;;;;;;4189521;28;20051;-60
2022/02/26 10:51:18;;;;;;;6.60;1.77;;;18.50;55.90;;;;;;4190009;28;20127;-59
2022/02/26 10:53:40;;;;;;;11.57;2.50;;;18.50;55.90;;;;;;4189774;28;20438;-59
2022/02/26 10:56:05;;;;;;;9.45;2.40;;;18.50;55.70;;;;;;4157211;28;20137;-59
2022/02/26 10:58:29;;;;;;;8.90;2.10;;;18.50;55.90;;;;;;4173362;28;20053;-59
2022/02/26 11:00:53;;;;;;;11.82;3.00;;;18.40;55.90;;;;;;4173255;28;20051;-59
2022/02/26 11:03:16;;;;;;;11.77;2.15;;;18.30;56.10;;;;;;4172936;28;20130;-59
2022/02/26 11:05:40;;;;;;;10.93;2.45;;;18.30;56.20;;;;;;4172893;28;20508;-60
2022/02/26 11:08:05;;;;;;;13.15;2.72;;;18.30;56.20;;;;;;4187618;28;20072;-59
2022/02/26 11:10:29;;;;;;;11.38;2.63;;;18.30;56.10;;;;;;4186712;28;20142;-59
2022/02/26 11:12:51;;;;;;;13.50;2.85;;;18.30;56.20;;;;;;4188208;28;20060;-60
2022/02/26 11:15:14;;;;;;;16.77;2.63;;;18.20;56.20;;;;;;4172958;28;20104;-59
2022/02/26 11:17:38;;;;;;;13.05;2.42;;;18.20;56.30;;;;;;4172617;28;20045;-59
2022/02/26 11:20:02;;;;;;;11.68;2.55;;;18.20;56.30;;;;;;4182958;28;20052;-60
2022/02/26 11:22:25;;;;;;;8.80;2.67;;;18.20;56.20;;;;;;4189271;28;20464;-59
2022/02/26 11:24:50;;;;;;;13.90;2.53;;;18.20;56.30;;;;;;4189898;28;20511;-59
2022/02/26 11:27:12;;;;;;;10.30;2.38;;;18.20;56.60;;;;;;4188604;28;20136;-59
2022/02/26 11:29:35;;;;;;;10.80;2.60;;;18.20;56.50;;;;;;4189196;28;20401;-59
2022/02/26 11:32:04;;;;;;;11.18;2.78;;;18.20;57.30;;;;;;4189299;28;20051;-59
2022/02/26 11:34:28;;;;;;;13.25;2.38;;;18.30;56.60;;;;;;4188630;28;20051;-59
2022/02/26 11:36:53;;;;;;;13.25;2.60;;;18.40;56.40;;;;;;4172808;28;20045;-59
2022/02/26 11:39:27;;;;;;;12.45;2.35;;;18.40;56.10;;;;;;4173808;28;20500;-59
2022/02/26 11:41:51;;;;;;;14.63;3.17;;;18.50;56.00;;;;;;4188721;28;20484;-59
2022/02/26 11:44:13;;;;;;;9.30;2.33;;;18.50;55.90;;;;;;4172634;28;20045;-58
2022/02/26 11:46:39;;;;;;;10.95;2.53;;;18.50;55.90;;;;;;4166878;28;20068;-59
2022/02/26 11:49:17;;;;;;;9.75;2.47;;;18.40;56.10;;;;;;4161761;28;20115;-59
2022/02/26 11:51:45;;;;;;;11.68;2.28;;;18.30;56.10;;;;;;4161182;28;20041;-59
2022/02/26 11:54:08;;;;;;;8.13;2.42;;;18.10;56.40;;;;;;4161799;28;20099;-59
2022/02/26 11:56:41;;;;;;;9.65;2.50;;;18.00;56.80;;;;;;4176250;28;20053;-59
2022/02/26 11:59:05;;;;;;;14.38;2.55;;;18.00;57.70;;;;;;4176547;28;20064;-59
2022/02/26 12:01:28;;;;;;;11.07;2.22;;;18.00;56.90;;;;;;4177958;28;20056;-59
2022/02/26 12:03:54;;;;;;;13.70;2.97;;;18.10;56.90;;;;;;4177575;28;20098;-59
2022/02/26 12:06:36;;;;;;;10.07;2.45;;;18.10;56.90;;;;;;4161054;28;20048;-59
2022/02/26 12:09:02;;;;;;;7.95;2.67;;;18.10;56.90;;;;;;4157788;28;20103;-59
2022/02/26 12:11:34;;;;;;;11.38;2.33;;;18.10;57.50;;;;;;4164277;28;20052;-60
2022/02/26 12:13:58;;;;;;;11.93;2.40;;;18.00;57.90;;;;;;4181945;28;20425;-59
2022/02/26 12:16:28;;;;;;;11.85;2.78;;;18.00;58.20;;;;;;4156021;28;20463;-58
2022/02/26 12:18:56;;;;;;;12.93;2.22;;;18.00;58.70;;;;;;4158742;28;20057;-60